sensor_id;sensor_type;location;lat;lon;timestamp;pressure;altitude;pressure_sealevel;temperature;humidity
10470;BME280;5282;47.052;15.458;2023-01-28T00:02:22;97599.59;;;-1.40;100.00
10470;BME280;5282;47.052;15.458;2023-01-28T00:04:49;97594.31;;;-1.40;100.00
10470;BME280;5282;47.052;15.458;2023-01-28T00:07:16;97593.38;;;-1.39;100.00
10470;BME280;5282;47.052;15.458;2023-01-28T00:09:45;97589.88;;;-1.40;100.00
10470;BME280;5282;47.052;15.458;2023-01-28T00:12:11;97592.72;;;-1.43;100.00
10470;BME280;5282;47.052;15.458;2023-01-28T00:14:40;97599.69;;;-1.42;100.00
10470;BME280;5282;47.052;15.458;2023-01-28T00:17:07;97596.38;;;-1.45;100.00
10470;BME280;5282;47.052;15.458;2023-01-28T00:19:34;97597.59;;;-1.51;100.00
10470;BME280;5282;47.052;15.458;2023-01-28T00:22:01;97605.25;;;-1.46;100.00
10470;BME280;5282;47.052;15.458;2023-01-28T00:24:29;97597.50;;;-1.49;100.00
10470;BME280;5282;47.052;15.458;2023-01-28T00:26:57;97604.38;;;-1.47;100.00
10470;BME280;5282;47.052;15.458;2023-01-28T00:29:24;97601.66;;;-1.45;100.00
10470;BME280;5282;47.052;15.458;2023-01-28T00:31:51;97611.63;;;-1.50;100.00
10470;BME280;5282;47.052;15.458;2023-01-28T00:34:19;97603.53;;;-1.47;100.00
10470;BME280;5282;47.052;15.458;2023-01-28T00:36:46;97609.38;;;-1.42;100.00
10470;BME280;5282;47.052;15.458;2023-01-28T00:39:25;97601.47;;;-1.42;100.00
10470;BME280;5282;47.052;15.458;2023-01-28T00:41:57;97615.03;;;-1.48;100.00
10470;BME280;5282;47.052;15.458;2023-01-28T00:44:23;97609.88;;;-1.66;100.00
10470;BME280;5282;47.052;15.458;2023-01-28T00:46:51;97605.59;;;-1.52;100.00
10470;BME280;5282;47.052;15.458;2023-01-28T00:49:18;97605.31;;;-1.48;100.00
10470;BME280;5282;47.052;15.458;2023-01-28T00:51:45;97615.88;;;-1.48;100.00
10470;BME280;5282;47.052;15.458;2023-01-28T00:54:13;97610.81;;;-1.51;100.00
10470;BME280;5282;47.052;15.458;2023-01-28T00:56:40;97610.03;;;-1.53;100.00
10470;BME280;5282;47.052;15.458;2023-01-28T00:59:08;97614.44;;;-1.53;100.00
10470;BME280;5282;47.052;15.458;2023-01-28T01:01:36;97619.06;;;-1.57;100.00
10470;BME280;5282;47.052;15.458;2023-01-28T01:04:03;97622.97;;;-1.48;100.00
10470;BME280;5282;47.052;15.458;2023-01-28T01:06:36;97622.22;;;-1.50;100.00
10470;BME280;5282;47.052;15.458;2023-01-28T01:09:05;97619.56;;;-1.50;100.00
10470;BME280;5282;47.052;15.458;2023-01-28T01:11:33;97622.91;;;-1.63;100.00
10470;BME280;5282;47.052;15.458;2023-01-28T01:14:00;97617.34;;;-1.73;100.00
10470;BME280;5282;47.052;15.458;2023-01-28T01:16:30;97620.59;;;-1.53;100.00
10470;BME280;5282;47.052;15.458;2023-01-28T01:18:58;97626.72;;;-1.52;100.00
10470;BME280;5282;47.052;15.458;2023-01-28T01:21:27;97635.63;;;-1.69;100.00
10470;BME280;5282;47.052;15.458;2023-01-28T01:23:54;97630.84;;;-1.63;100.00
10470;BME280;5282;47.052;15.458;2023-01-28T01:26:21;97630.56;;;-1.58;100.00
10470;BME280;5282;47.052;15.458;2023-01-28T01:28:49;97625.88;;;-1.53;100.00
10470;BME280;5282;47.052;15.458;2023-01-28T01:31:18;97626.66;;;-1.51;100.00
10470;BME280;5282;47.052;15.458;2023-01-28T01:33:50;97628.38;;;-1.66;100.00
10470;BME280;5282;47.052;15.458;2023-01-28T01:36:17;97630.13;;;-1.50;100.00
10470;BME280;5282;47.052;15.458;2023-01-28T01:38:46;97630.91;;;-1.48;100.00
10470;BME280;5282;47.052;15.458;2023-01-28T01:41:24;97630.03;;;-1.49;100.00
10470;BME280;5282;47.052;15.458;2023-01-28T01:43:53;97629.34;;;-1.67;100.00
10470;BME280;5282;47.052;15.458;2023-01-28T01:46:25;97627.00;;;-1.57;100.00
10470;BME280;5282;47.052;15.458;2023-01-28T01:48:56;97628.19;;;-1.63;100.00
10470;BME280;5282;47.052;15.458;2023-01-28T01:51:30;97632.03;;;-1.68;100.00
10470;BME280;5282;47.052;15.458;2023-01-28T01:53:59;97636.63;;;-1.56;100.00
10470;BME280;5282;47.052;15.458;2023-01-28T01:56:29;97627.53;;;-1.66;100.00
10470;BME280;5282;47.052;15.458;2023-01-28T01:58:59;97632.47;;;-1.76;100.00
10470;BME280;5282;47.052;15.458;2023-01-28T02:01:28;97635.19;;;-1.62;100.00
10470;BME280;5282;47.052;15.458;2023-01-28T02:04:02;97635.41;;;-1.50;100.00
10470;BME280;5282;47.052;15.458;2023-01-28T02:06:31;97640.28;;;-1.59;100.00
10470;BME280;5282;47.052;15.458;2023-01-28T02:08:58;97638.94;;;-1.66;100.00
10470;BME280;5282;47.052;15.458;2023-01-28T02:11:28;97643.09;;;-1.62;100.00
10470;BME280;5282;47.052;15.458;2023-01-28T02:13:58;97648.13;;;-1.57;100.00
10470;BME280;5282;47.052;15.458;2023-01-28T02:16:28;97651.44;;;-1.53;100.00
10470;BME280;5282;47.052;15.458;2023-01-28T02:18:58;97647.84;;;-1.52;100.00
10470;BME280;5282;47.052;15.458;2023-01-28T02:21:48;97640.53;;;-1.47;100.00
10470;BME280;5282;47.052;15.458;2023-01-28T02:24:33;97638.06;;;-1.50;100.00
10470;BME280;5282;47.052;15.458;2023-01-28T02:27:26;97636.78;;;-1.59;100.00
10470;BME280;5282;47.052;15.458;2023-01-28T02:30:02;97631.22;;;-1.69;100.00
10470;BME280;5282;47.052;15.458;2023-01-28T02:32:35;97646.56;;;-1.92;100.00
10470;BME280;5282;47.052;15.458;2023-01-28T02:35:11;97637.25;;;-1.67;100.00
10470;BME280;5282;47.052;15.458;2023-01-28T02:37:45;97639.41;;;-1.90;100.00
10470;BME280;5282;47.052;15.458;2023-01-28T02:40:16;97633.19;;;-1.73;100.00
10470;BME280;5282;47.052;15.458;2023-01-28T02:42:45;97636.75;;;-1.90;100.00
10470;BME280;5282;47.052;15.458;2023-01-28T02:45:20;97628.63;;;-1.71;100.00
10470;BME280;5282;47.052;15.458;2023-01-28T02:47:48;97626.16;;;-1.58;100.00
10470;BME280;5282;47.052;15.458;2023-01-28T02:50:30;97626.06;;;-1.56;100.00
10470;BME280;5282;47.052;15.458;2023-01-28T02:53:10;97625.88;;;-1.53;100.00
10470;BME280;5282;47.052;15.458;2023-01-28T02:56:08;97625.22;;;-1.57;100.00
10470;BME280;5282;47.052;15.458;2023-01-28T02:58:42;97628.63;;;-1.71;100.00
10470;BME280;5282;47.052;15.458;2023-01-28T03:01:18;97621.66;;;-1.56;100.00
10470;BME280;5282;47.052;15.458;2023-01-28T03:03:57;97626.16;;;-1.58;100.00
10470;BME280;5282;47.052;15.458;2023-01-28T03:06:29;97634.34;;;-1.78;100.00
10470;BME280;5282;47.052;15.458;2023-01-28T03:09:01;97632.84;;;-1.82;100.00
10470;BME280;5282;47.052;15.458;2023-01-28T03:11:50;97631.22;;;-1.69;100.00
10470;BME280;5282;47.052;15.458;2023-01-28T03:14:37;97639.91;;;-1.67;100.00
10470;BME280;5282;47.052;15.458;2023-01-28T03:17:26;97639.69;;;-1.64;100.00
10470;BME280;5282;47.052;15.458;2023-01-28T03:20:14;97635.19;;;-1.62;100.00
10470;BME280;5282;47.052;15.458;2023-01-28T03:23:02;97632.22;;;-1.56;100.00
10470;BME280;5282;47.052;15.458;2023-01-28T03:25:53;97621.88;;;-1.60;100.00
10470;BME280;5282;47.052;15.458;2023-01-28T03:28:42;97631.38;;;-1.72;100.00
10470;BME280;5282;47.052;15.458;2023-01-28T03:31:30;97632.09;;;-1.84;100.00
10470;BME280;5282;47.052;15.458;2023-01-28T03:34:18;97635.28;;;-1.63;100.00
10470;BME280;5282;47.052;15.458;2023-01-28T03:37:04;97634.09;;;-1.58;100.00
10470;BME280;5282;47.052;15.458;2023-01-28T03:39:31;97640.38;;;-1.60;100.00
10470;BME280;5282;47.052;15.458;2023-01-28T03:42:01;97647.47;;;-1.77;100.00
10470;BME280;5282;47.052;15.458;2023-01-28T03:44:28;97645.84;;;-1.63;100.00
10470;BME280;5282;47.052;15.458;2023-01-28T03:47:13;97641.91;;;-1.56;100.00
10470;BME280;5282;47.052;15.458;2023-01-28T03:49:43;97638.38;;;-1.71;100.00
10470;BME280;5282;47.052;15.458;2023-01-28T03:52:11;97639.44;;;-1.59;100.00
10470;BME280;5282;47.052;15.458;2023-01-28T03:54:38;97638.06;;;-1.50;100.00
10470;BME280;5282;47.052;15.458;2023-01-28T03:57:05;97636.66;;;-1.72;100.00
10470;BME280;5282;47.052;15.458;2023-01-28T03:59:32;97641.34;;;-1.77;100.00
10470;BME280;5282;47.052;15.458;2023-01-28T04:01:59;97634.63;;;-1.67;100.00
10470;BME280;5282;47.052;15.458;2023-01-28T04:04:27;97638.50;;;-1.58;100.00
10470;BME280;5282;47.052;15.458;2023-01-28T04:06:59;97647.09;;;-1.55;100.00
10470;BME280;5282;47.052;15.458;2023-01-28T04:09:26;97640.56;;;-1.63;100.00
10470;BME280;5282;47.052;15.458;2023-01-28T04:11:53;97638.22;;;-1.53;100.00
10470;BME280;5282;47.052;15.458;2023-01-28T04:14:19;97642.50;;;-1.51;100.00
10470;BME280;5282;47.052;15.458;2023-01-28T04:16:46;97640.88;;;-1.53;100.00
10470;BME280;5282;47.052;15.458;2023-01-28T04:19:13;97636.28;;;-1.50;100.00
10470;BME280;5282;47.052;15.458;2023-01-28T04:21:40;97654.84;;;-1.51;100.00
10470;BME280;5282;47.052;15.458;2023-01-28T04:24:09;97644.88;;;-1.46;100.00
10470;BME280;5282;47.052;15.458;2023-01-28T04:26:36;97647.56;;;-1.48;100.00
10470;BME280;5282;47.052;15.458;2023-01-28T04:29:03;97642.28;;;-1.48;100.00
10470;BME280;5282;47.052;15.458;2023-01-28T04:31:33;97643.22;;;-1.49;100.00
10470;BME280;5282;47.052;15.458;2023-01-28T04:34:00;97651.25;;;-1.50;100.00
10470;BME280;5282;47.052;15.458;2023-01-28T04:36:27;97651.94;;;-1.47;100.00
10470;BME280;5282;47.052;15.458;2023-01-28T04:38:54;97655.50;;;-1.48;100.00
10470;BME280;5282;47.052;15.458;2023-01-28T04:41:22;97662.84;;;-1.53;100.00
10470;BME280;5282;47.052;15.458;2023-01-28T04:43:49;97662.84;;;-1.53;100.00
10470;BME280;5282;47.052;15.458;2023-01-28T04:46:16;97668.72;;;-1.48;100.00
10470;BME280;5282;47.052;15.458;2023-01-28T04:48:43;97663.47;;;-1.64;100.00
10470;BME280;5282;47.052;15.458;2023-01-28T04:51:11;97670.38;;;-1.61;100.00
10470;BME280;5282;47.052;15.458;2023-01-28T04:53:37;97673.41;;;-1.53;100.00
10470;BME280;5282;47.052;15.458;2023-01-28T04:56:05;97673.78;;;-1.75;100.00
10470;BME280;5282;47.052;15.458;2023-01-28T04:58:33;97666.81;;;-1.76;100.00
10470;BME280;5282;47.052;15.458;2023-01-28T05:01:00;97680.59;;;-1.71;100.00
10470;BME280;5282;47.052;15.458;2023-01-28T05:03:27;97684.88;;;-1.84;100.00
10470;BME280;5282;47.052;15.458;2023-01-28T05:05:54;97684.63;;;-1.96;100.00
10470;BME280;5282;47.052;15.458;2023-01-28T05:08:21;97685.78;;;-1.69;100.00
10470;BME280;5282;47.052;15.458;2023-01-28T05:10:48;97684.41;;;-1.61;100.00
10470;BME280;5282;47.052;15.458;2023-01-28T05:13:17;97687.75;;;-1.73;100.00
10470;BME280;5282;47.052;15.458;2023-01-28T05:15:50;97693.91;;;-1.73;100.00
10470;BME280;5282;47.052;15.458;2023-01-28T05:18:16;97694.03;;;-1.60;100.00
10470;BME280;5282;47.052;15.458;2023-01-28T05:20:43;97700.19;;;-1.75;100.00
10470;BME280;5282;47.052;15.458;2023-01-28T05:23:10;97699.59;;;-1.80;100.00
10470;BME280;5282;47.052;15.458;2023-01-28T05:25:39;97700.38;;;-1.62;100.00
10470;BME280;5282;47.052;15.458;2023-01-28T05:28:06;97705.19;;;-1.55;100.00
10470;BME280;5282;47.052;15.458;2023-01-28T05:30:34;97705.47;;;-1.75;100.00
10470;BME280;5282;47.052;15.458;2023-01-28T05:33:02;97712.03;;;-1.82;100.00
10470;BME280;5282;47.052;15.458;2023-01-28T05:35:29;97705.91;;;-1.67;100.00
10470;BME280;5282;47.052;15.458;2023-01-28T05:37:56;97707.50;;;-1.64;100.00
10470;BME280;5282;47.052;15.458;2023-01-28T05:40:23;97722.59;;;-1.82;100.00
10470;BME280;5282;47.052;15.458;2023-01-28T05:42:50;97724.19;;;-1.64;100.00
10470;BME280;5282;47.052;15.458;2023-01-28T05:45:16;97718.38;;;-1.55;100.00
10470;BME280;5282;47.052;15.458;2023-01-28T05:47:43;97716.19;;;-1.78;100.00
10470;BME280;5282;47.052;15.458;2023-01-28T05:50:13;97726.44;;;-1.72;100.00
10470;BME280;5282;47.052;15.458;2023-01-28T05:52:40;97727.28;;;-1.56;100.00
10470;BME280;5282;47.052;15.458;2023-01-28T05:55:09;97730.50;;;-1.50;100.00
10470;BME280;5282;47.052;15.458;2023-01-28T05:57:36;97727.63;;;-1.78;100.00
10470;BME280;5282;47.052;15.458;2023-01-28T06:00:04;97736.31;;;-1.92;100.00
10470;BME280;5282;47.052;15.458;2023-01-28T06:02:31;97735.78;;;-1.66;100.00
10470;BME280;5282;47.052;15.458;2023-01-28T06:04:58;97731.69;;;-1.56;100.00
10470;BME280;5282;47.052;15.458;2023-01-28T06:07:26;97739.38;;;-1.83;100.00
10470;BME280;5282;47.052;15.458;2023-01-28T06:09:53;97741.59;;;-1.92;100.00
10470;BME280;5282;47.052;15.458;2023-01-28T06:12:20;97744.22;;;-1.76;100.00
10470;BME280;5282;47.052;15.458;2023-01-28T06:14:47;97745.66;;;-1.54;100.00
10470;BME280;5282;47.052;15.458;2023-01-28T06:17:14;97740.13;;;-1.49;100.00
10470;BME280;5282;47.052;15.458;2023-01-28T06:19:41;97745.50;;;-1.67;100.00
10470;BME280;5282;47.052;15.458;2023-01-28T06:22:08;97749.94;;;-1.67;100.00
10470;BME280;5282;47.052;15.458;2023-01-28T06:24:36;97752.03;;;-1.58;100.00
10470;BME280;5282;47.052;15.458;2023-01-28T06:27:03;97751.03;;;-1.72;100.00
10470;BME280;5282;47.052;15.458;2023-01-28T06:29:30;97759.03;;;-1.73;100.00
10470;BME280;5282;47.052;15.458;2023-01-28T06:31:57;97764.56;;;-1.62;100.00
10470;BME280;5282;47.052;15.458;2023-01-28T06:34:24;97765.84;;;-1.53;100.00
10470;BME280;5282;47.052;15.458;2023-01-28T06:36:50;97769.34;;;-1.68;100.00
10470;BME280;5282;47.052;15.458;2023-01-28T06:39:18;97769.00;;;-1.62;100.00
10470;BME280;5282;47.052;15.458;2023-01-28T06:41:47;97775.47;;;-1.52;100.00
10470;BME280;5282;47.052;15.458;2023-01-28T06:44:15;97778.03;;;-1.50;100.00
10470;BME280;5282;47.052;15.458;2023-01-28T06:46:42;97764.66;;;-1.47;100.00
10470;BME280;5282;47.052;15.458;2023-01-28T06:49:09;97773.34;;;-1.45;100.00
10470;BME280;5282;47.052;15.458;2023-01-28T06:51:35;97782.28;;;-1.48;100.00
10470;BME280;5282;47.052;15.458;2023-01-28T06:54:03;97785.78;;;-1.47;100.00
10470;BME280;5282;47.052;15.458;2023-01-28T06:56:30;97781.75;;;-1.55;100.00
10470;BME280;5282;47.052;15.458;2023-01-28T06:58:58;97789.38;;;-1.48;100.00
10470;BME280;5282;47.052;15.458;2023-01-28T07:01:25;97787.22;;;-1.42;100.00
10470;BME280;5282;47.052;15.458;2023-01-28T07:03:52;97791.31;;;-1.36;100.00
10470;BME280;5282;47.052;15.458;2023-01-28T07:06:19;97794.47;;;-1.45;100.00
10470;BME280;5282;47.052;15.458;2023-01-28T07:08:46;97794.78;;;-1.35;100.00
10470;BME280;5282;47.052;15.458;2023-01-28T07:11:13;97791.72;;;-1.28;100.00
10470;BME280;5282;47.052;15.458;2023-01-28T07:13:40;97788.84;;;-1.55;100.00
10470;BME280;5282;47.052;15.458;2023-01-28T07:16:09;97793.03;;;-1.35;100.00
10470;BME280;5282;47.052;15.458;2023-01-28T07:18:36;97798.81;;;-1.28;100.00
10470;BME280;5282;47.052;15.458;2023-01-28T07:21:03;97804.78;;;-1.25;100.00
10470;BME280;5282;47.052;15.458;2023-01-28T07:23:30;97803.47;;;-1.17;100.00
10470;BME280;5282;47.052;15.458;2023-01-28T07:26:00;97798.28;;;-1.19;100.00
10470;BME280;5282;47.052;15.458;2023-01-28T07:28:27;97802.63;;;-1.18;100.00
10470;BME280;5282;47.052;15.458;2023-01-28T07:30:56;97800.31;;;-1.24;100.00
10470;BME280;5282;47.052;15.458;2023-01-28T07:33:25;97803.22;;;-1.29;100.00
10470;BME280;5282;47.052;15.458;2023-01-28T07:35:52;97804.41;;;-1.18;100.00
10470;BME280;5282;47.052;15.458;2023-01-28T07:38:19;97812.97;;;-1.45;100.00
10470;BME280;5282;47.052;15.458;2023-01-28T07:40:46;97816.63;;;-1.64;100.00
10470;BME280;5282;47.052;15.458;2023-01-28T07:43:13;97810.88;;;-1.24;100.00
10470;BME280;5282;47.052;15.458;2023-01-28T07:45:40;97812.06;;;-1.14;100.00
10470;BME280;5282;47.052;15.458;2023-01-28T07:48:10;97819.75;;;-1.25;100.00
10470;BME280;5282;47.052;15.458;2023-01-28T07:50:39;97822.56;;;-1.12;100.00
10470;BME280;5282;47.052;15.458;2023-01-28T07:53:08;97821.63;;;-1.11;100.00
10470;BME280;5282;47.052;15.458;2023-01-28T07:55:36;97814.06;;;-0.87;100.00
10470;BME280;5282;47.052;15.458;2023-01-28T07:58:05;97812.53;;;-0.75;100.00
10470;BME280;5282;47.052;15.458;2023-01-28T08:00:34;97815.03;;;-1.04;100.00
10470;BME280;5282;47.052;15.458;2023-01-28T08:03:04;97825.91;;;-1.25;100.00
10470;BME280;5282;47.052;15.458;2023-01-28T08:05:39;97831.16;;;-1.09;100.00
10470;BME280;5282;47.052;15.458;2023-01-28T08:08:08;97828.59;;;-0.94;100.00
10470;BME280;5282;47.052;15.458;2023-01-28T08:10:35;97827.91;;;-0.98;100.00
10470;BME280;5282;47.052;15.458;2023-01-28T08:13:03;97840.56;;;-1.19;100.00
10470;BME280;5282;47.052;15.458;2023-01-28T08:15:30;97847.44;;;-1.00;100.00
10470;BME280;5282;47.052;15.458;2023-01-28T08:17:59;97842.59;;;-1.08;100.00
10470;BME280;5282;47.052;15.458;2023-01-28T08:20:27;97839.47;;;-0.84;100.00
10470;BME280;5282;47.052;15.458;2023-01-28T08:23:05;97841.41;;;-0.72;100.00
10470;BME280;5282;47.052;15.458;2023-01-28T08:25:33;97830.22;;;-0.61;100.00
10470;BME280;5282;47.052;15.458;2023-01-28T08:28:00;97838.94;;;-1.05;100.00
10470;BME280;5282;47.052;15.458;2023-01-28T08:30:27;97842.94;;;-1.14;100.00
10470;BME280;5282;47.052;15.458;2023-01-28T08:32:54;97846.19;;;-1.25;100.00
10470;BME280;5282;47.052;15.458;2023-01-28T08:35:22;97847.56;;;-1.34;100.00
10470;BME280;5282;47.052;15.458;2023-01-28T08:37:51;97851.97;;;-1.34;100.00
10470;BME280;5282;47.052;15.458;2023-01-28T08:40:20;97853.44;;;-1.29;100.00
10470;BME280;5282;47.052;15.458;2023-01-28T08:42:48;97860.31;;;-1.58;100.00
10470;BME280;5282;47.052;15.458;2023-01-28T08:45:16;97865.59;;;-1.58;100.00
10470;BME280;5282;47.052;15.458;2023-01-28T08:47:49;97863.72;;;-1.08;100.00
10470;BME280;5282;47.052;15.458;2023-01-28T08:50:17;97870.72;;;-1.07;100.00
10470;BME280;5282;47.052;15.458;2023-01-28T08:52:44;97866.34;;;-0.92;100.00
10470;BME280;5282;47.052;15.458;2023-01-28T08:55:14;97873.50;;;-0.78;100.00
10470;BME280;5282;47.052;15.458;2023-01-28T08:57:44;97868.28;;;-0.64;100.00
10470;BME280;5282;47.052;15.458;2023-01-28T09:00:14;97879.94;;;-1.14;100.00
10470;BME280;5282;47.052;15.458;2023-01-28T09:02:42;97876.16;;;-0.78;100.00
10470;BME280;5282;47.052;15.458;2023-01-28T09:05:10;97876.50;;;-0.84;100.00
10470;BME280;5282;47.052;15.458;2023-01-28T09:07:37;97876.34;;;-0.97;100.00
10470;BME280;5282;47.052;15.458;2023-01-28T09:10:05;97882.13;;;-0.74;100.00
10470;BME280;5282;47.052;15.458;2023-01-28T09:12:35;97882.78;;;-0.71;100.00
10470;BME280;5282;47.052;15.458;2023-01-28T09:15:04;97889.06;;;-0.57;100.00
10470;BME280;5282;47.052;15.458;2023-01-28T09:17:32;97886.31;;;-0.86;100.00
10470;BME280;5282;47.052;15.458;2023-01-28T09:20:01;97886.97;;;-0.67;100.00
10470;BME280;5282;47.052;15.458;2023-01-28T09:22:29;97896.25;;;-0.59;100.00
10470;BME280;5282;47.052;15.458;2023-01-28T09:24:55;97895.88;;;-1.00;100.00
10470;BME280;5282;47.052;15.458;2023-01-28T09:27:22;97900.84;;;-0.63;100.00
10470;BME280;5282;47.052;15.458;2023-01-28T09:29:49;97903.28;;;-0.44;100.00
10470;BME280;5282;47.052;15.458;2023-01-28T09:32:17;97894.63;;;-0.32;100.00
10470;BME280;5282;47.052;15.458;2023-01-28T09:34:44;97902.34;;;-0.12;100.00
10470;BME280;5282;47.052;15.458;2023-01-28T09:37:11;97894.13;;;-0.08;100.00
10470;BME280;5282;47.052;15.458;2023-01-28T09:39:39;97901.19;;;-0.08;100.00
10470;BME280;5282;47.052;15.458;2023-01-28T09:42:23;97899.81;;;-0.30;100.00
10470;BME280;5282;47.052;15.458;2023-01-28T09:45:02;97907.00;;;-0.32;100.00
10470;BME280;5282;47.052;15.458;2023-01-28T09:47:36;97906.94;;;-0.16;100.00
10470;BME280;5282;47.052;15.458;2023-01-28T09:50:08;97898.88;;;0.02;100.00
10470;BME280;5282;47.052;15.458;2023-01-28T09:52:39;97892.88;;;-0.17;100.00
10470;BME280;5282;47.052;15.458;2023-01-28T09:55:14;97899.56;;;-0.25;100.00
10470;BME280;5282;47.052;15.458;2023-01-28T09:57:47;97904.81;;;-0.40;100.00
10470;BME280;5282;47.052;15.458;2023-01-28T10:00:18;97902.19;;;-0.25;100.00
10470;BME280;5282;47.052;15.458;2023-01-28T10:03:09;97902.28;;;0.04;100.00
10470;BME280;5282;47.052;15.458;2023-01-28T10:05:45;97899.28;;;-0.21;100.00
10470;BME280;5282;47.052;15.458;2023-01-28T10:08:25;97903.38;;;-0.01;100.00
10470;BME280;5282;47.052;15.458;2023-01-28T10:11:00;97899.59;;;-0.41;100.00
10470;BME280;5282;47.052;15.458;2023-01-28T10:13:42;97904.56;;;-0.35;100.00
10470;BME280;5282;47.052;15.458;2023-01-28T10:16:19;97897.06;;;0.02;100.00
10470;BME280;5282;47.052;15.458;2023-01-28T10:18:53;97896.78;;;-0.08;100.00
10470;BME280;5282;47.052;15.458;2023-01-28T10:21:25;97892.69;;;0.01;100.00
10470;BME280;5282;47.052;15.458;2023-01-28T10:24:00;97895.97;;;-0.55;100.00
10470;BME280;5282;47.052;15.458;2023-01-28T10:26:32;97894.13;;;-0.69;100.00
10470;BME280;5282;47.052;15.458;2023-01-28T10:29:05;97899.38;;;-0.22;100.00
10470;BME280;5282;47.052;15.458;2023-01-28T10:31:39;97896.97;;;-0.41;100.00
10470;BME280;5282;47.052;15.458;2023-01-28T10:34:10;97897.13;;;-0.14;100.00
10470;BME280;5282;47.052;15.458;2023-01-28T10:36:37;97889.56;;;-0.06;100.00
10470;BME280;5282;47.052;15.458;2023-01-28T10:39:04;97892.13;;;-0.04;100.00
10470;BME280;5282;47.052;15.458;2023-01-28T10:41:33;97897.56;;;-0.36;100.00
10470;BME280;5282;47.052;15.458;2023-01-28T10:44:00;97889.50;;;-0.04;100.00
10470;BME280;5282;47.052;15.458;2023-01-28T10:46:29;97892.72;;;0.15;100.00
10470;BME280;5282;47.052;15.458;2023-01-28T10:49:02;97880.13;;;0.19;100.00
10470;BME280;5282;47.052;15.458;2023-01-28T10:51:34;97881.94;;;0.19;100.00
10470;BME280;5282;47.052;15.458;2023-01-28T10:54:02;97888.28;;;0.16;100.00
10470;BME280;5282;47.052;15.458;2023-01-28T10:56:31;97888.19;;;-0.42;100.00
10470;BME280;5282;47.052;15.458;2023-01-28T10:59:02;97882.50;;;-0.66;100.00
10470;BME280;5282;47.052;15.458;2023-01-28T11:01:40;97890.72;;;-0.40;100.00
10470;BME280;5282;47.052;15.458;2023-01-28T11:04:15;97882.94;;;-0.13;100.00
10470;BME280;5282;47.052;15.458;2023-01-28T11:06:53;97884.59;;;-0.41;100.00
10470;BME280;5282;47.052;15.458;2023-01-28T11:09:22;97885.13;;;-0.50;100.00
10470;BME280;5282;47.052;15.458;2023-01-28T11:11:49;97885.25;;;-0.68;100.00
10470;BME280;5282;47.052;15.458;2023-01-28T11:14:21;97884.78;;;-0.44;100.00
10470;BME280;5282;47.052;15.458;2023-01-28T11:16:49;97880.53;;;-0.47;100.00
10470;BME280;5282;47.052;15.458;2023-01-28T11:19:17;97883.22;;;-0.18;100.00
10470;BME280;5282;47.052;15.458;2023-01-28T11:21:48;97885.59;;;-0.58;100.00
10470;BME280;5282;47.052;15.458;2023-01-28T11:24:21;97877.53;;;-1.03;100.00
10470;BME280;5282;47.052;15.458;2023-01-28T11:26:51;97878.28;;;-0.85;100.00
10470;BME280;5282;47.052;15.458;2023-01-28T11:29:23;97880.25;;;-0.72;100.00
10470;BME280;5282;47.052;15.458;2023-01-28T11:31:52;97874.13;;;-0.58;100.00
10470;BME280;5282;47.052;15.458;2023-01-28T11:34:19;97874.47;;;-0.34;100.00
10470;BME280;5282;47.052;15.458;2023-01-28T11:36:50;97869.03;;;-0.62;100.00
10470;BME280;5282;47.052;15.458;2023-01-28T11:39:21;97869.66;;;-0.72;100.00
10470;BME280;5282;47.052;15.458;2023-01-28T11:41:51;97863.06;;;-0.35;100.00
10470;BME280;5282;47.052;15.458;2023-01-28T11:44:21;97856.06;;;-0.36;100.00
10470;BME280;5282;47.052;15.458;2023-01-28T11:49:59;97858.31;;;-0.44;100.00
10470;BME280;5282;47.052;15.458;2023-01-28T11:52:35;97854.78;;;-0.59;100.00
10470;BME280;5282;47.052;15.458;2023-01-28T11:55:22;97859.59;;;-0.51;100.00
10470;BME280;5282;47.052;15.458;2023-01-28T11:58:00;97855.50;;;-0.41;100.00
10470;BME280;5282;47.052;15.458;2023-01-28T12:00:37;97860.41;;;-0.65;100.00
10470;BME280;5282;47.052;15.458;2023-01-28T12:03:22;97856.94;;;-0.21;100.00
10470;BME280;5282;47.052;15.458;2023-01-28T12:06:02;97849.47;;;-0.14;100.00
10470;BME280;5282;47.052;15.458;2023-01-28T12:08:41;97852.13;;;-0.14;100.00
10470;BME280;5282;47.052;15.458;2023-01-28T12:11:21;97854.81;;;0.15;100.00
10470;BME280;5282;47.052;15.458;2023-01-28T12:14:12;97845.72;;;-0.10;100.00
10470;BME280;5282;47.052;15.458;2023-01-28T12:16:52;97847.25;;;-0.51;100.00
10470;BME280;5282;47.052;15.458;2023-01-28T12:19:35;97842.88;;;-0.21;100.00
10470;BME280;5282;47.052;15.458;2023-01-28T12:22:23;97841.38;;;0.04;100.00
10470;BME280;5282;47.052;15.458;2023-01-28T12:25:10;97837.78;;;0.05;100.00
10470;BME280;5282;47.052;15.458;2023-01-28T12:27:49;97833.88;;;0.25;100.00
10470;BME280;5282;47.052;15.458;2023-01-28T12:30:32;97841.16;;;0.36;100.00
10470;BME280;5282;47.052;15.458;2023-01-28T12:33:32;97837.03;;;0.03;100.00
10470;BME280;5282;47.052;15.458;2023-01-28T12:36:09;97832.75;;;0.14;100.00
10470;BME280;5282;47.052;15.458;2023-01-28T12:38:47;97836.47;;;0.26;100.00
10470;BME280;5282;47.052;15.458;2023-01-28T12:41:21;97840.31;;;0.35;100.00
10470;BME280;5282;47.052;15.458;2023-01-28T12:43:56;97840.44;;;0.05;100.00
10470;BME280;5282;47.052;15.458;2023-01-28T12:46:38;97840.66;;;-0.29;100.00
10470;BME280;5282;47.052;15.458;2023-01-28T12:49:11;97842.31;;;-0.12;100.00
10470;BME280;5282;47.052;15.458;2023-01-28T12:51:48;97841.84;;;0.10;100.00
10470;BME280;5282;47.052;15.458;2023-01-28T12:54:20;97840.44;;;0.05;100.00
10470;BME280;5282;47.052;15.458;2023-01-28T12:56:52;97837.50;;;-0.05;100.00
10470;BME280;5282;47.052;15.458;2023-01-28T12:59:26;97835.88;;;0.07;100.00
10470;BME280;5282;47.052;15.458;2023-01-28T13:02:03;97840.63;;;0.16;100.00
10470;BME280;5282;47.052;15.458;2023-01-28T13:04:37;97841.47;;;0.17;100.00
10470;BME280;5282;47.052;15.458;2023-01-28T13:07:11;97841.28;;;0.20;100.00
10470;BME280;5282;47.052;15.458;2023-01-28T13:09:46;97850.06;;;0.35;100.00
10470;BME280;5282;47.052;15.458;2023-01-28T13:12:15;97844.97;;;0.17;100.00
10470;BME280;5282;47.052;15.458;2023-01-28T13:14:44;97846.00;;;0.29;100.00